sensor_id;sensor_type;location;lat;lon;timestamp;P1;durP1;ratioP1;P2;durP2;ratioP2
16612;SDS011;8419;52.358;9.752;2023-12-04T00:01:52;19.27;;;10.27;;
16612;SDS011;8419;52.358;9.752;2023-12-04T00:04:38;16.60;;;9.30;;
16612;SDS011;8419;52.358;9.752;2023-12-04T00:07:24;19.00;;;10.37;;
16612;SDS011;8419;52.358;9.752;2023-12-04T00:10:09;17.90;;;10.30;;
16612;SDS011;8419;52.358;9.752;2023-12-04T00:12:54;17.77;;;9.27;;
16612;SDS011;8419;52.358;9.752;2023-12-04T00:15:40;16.57;;;10.00;;
16612;SDS011;8419;52.358;9.752;2023-12-04T00:18:26;19.50;;;9.80;;
16612;SDS011;8419;52.358;9.752;2023-12-04T00:21:11;22.17;;;10.77;;
16612;SDS011;8419;52.358;9.752;2023-12-04T00:23:57;15.83;;;8.17;;
16612;SDS011;8419;52.358;9.752;2023-12-04T00:26:43;20.47;;;9.50;;
16612;SDS011;8419;52.358;9.752;2023-12-04T00:29:28;19.37;;;10.57;;
16612;SDS011;8419;52.358;9.752;2023-12-04T00:32:14;18.57;;;9.77;;
16612;SDS011;8419;52.358;9.752;2023-12-04T00:34:59;19.83;;;10.50;;
16612;SDS011;8419;52.358;9.752;2023-12-04T00:37:44;18.23;;;9.13;;
16612;SDS011;8419;52.358;9.752;2023-12-04T00:40:30;18.77;;;9.73;;
16612;SDS011;8419;52.358;9.752;2023-12-04T00:43:16;15.53;;;9.50;;
16612;SDS011;8419;52.358;9.752;2023-12-04T00:46:01;15.33;;;9.40;;
16612;SDS011;8419;52.358;9.752;2023-12-04T00:48:47;18.73;;;10.00;;
16612;SDS011;8419;52.358;9.752;2023-12-04T00:51:37;15.83;;;9.33;;
16612;SDS011;8419;52.358;9.752;2023-12-04T00:54:23;18.13;;;9.73;;
16612;SDS011;8419;52.358;9.752;2023-12-04T00:57:08;16.77;;;9.57;;
16612;SDS011;8419;52.358;9.752;2023-12-04T00:59:54;17.40;;;9.77;;
16612;SDS011;8419;52.358;9.752;2023-12-04T01:02:40;16.90;;;9.60;;
16612;SDS011;8419;52.358;9.752;2023-12-04T01:05:25;18.00;;;9.90;;
16612;SDS011;8419;52.358;9.752;2023-12-04T01:08:11;18.23;;;8.70;;
16612;SDS011;8419;52.358;9.752;2023-12-04T01:10:57;14.60;;;8.07;;
16612;SDS011;8419;52.358;9.752;2023-12-04T01:13:42;19.50;;;9.17;;
16612;SDS011;8419;52.358;9.752;2023-12-04T01:16:27;19.43;;;9.23;;
16612;SDS011;8419;52.358;9.752;2023-12-04T01:19:13;16.83;;;9.43;;
16612;SDS011;8419;52.358;9.752;2023-12-04T01:21:58;14.87;;;9.27;;
16612;SDS011;8419;52.358;9.752;2023-12-04T01:24:44;15.10;;;8.57;;
16612;SDS011;8419;52.358;9.752;2023-12-04T01:27:29;17.37;;;8.60;;
16612;SDS011;8419;52.358;9.752;2023-12-04T01:30:16;15.80;;;8.90;;
16612;SDS011;8419;52.358;9.752;2023-12-04T01:33:01;16.77;;;9.00;;
16612;SDS011;8419;52.358;9.752;2023-12-04T01:35:48;14.40;;;8.50;;
16612;SDS011;8419;52.358;9.752;2023-12-04T01:38:33;17.57;;;8.80;;
16612;SDS011;8419;52.358;9.752;2023-12-04T01:41:18;13.13;;;8.27;;
16612;SDS011;8419;52.358;9.752;2023-12-04T01:44:04;13.53;;;7.73;;
16612;SDS011;8419;52.358;9.752;2023-12-04T01:46:50;12.97;;;8.00;;
16612;SDS011;8419;52.358;9.752;2023-12-04T01:49:36;16.20;;;8.17;;
16612;SDS011;8419;52.358;9.752;2023-12-04T01:52:22;15.87;;;8.57;;
16612;SDS011;8419;52.358;9.752;2023-12-04T01:55:08;14.90;;;7.27;;
16612;SDS011;8419;52.358;9.752;2023-12-04T01:57:55;13.83;;;7.87;;
16612;SDS011;8419;52.358;9.752;2023-12-04T02:00:43;15.50;;;8.73;;
16612;SDS011;8419;52.358;9.752;2023-12-04T02:03:28;15.83;;;8.43;;
16612;SDS011;8419;52.358;9.752;2023-12-04T02:06:14;12.17;;;7.47;;
16612;SDS011;8419;52.358;9.752;2023-12-04T02:09:01;14.20;;;7.50;;
16612;SDS011;8419;52.358;9.752;2023-12-04T02:11:49;12.27;;;7.33;;
16612;SDS011;8419;52.358;9.752;2023-12-04T02:14:34;13.83;;;7.60;;
16612;SDS011;8419;52.358;9.752;2023-12-04T02:17:20;13.33;;;7.90;;
16612;SDS011;8419;52.358;9.752;2023-12-04T02:20:07;13.87;;;7.63;;
16612;SDS011;8419;52.358;9.752;2023-12-04T02:22:54;12.30;;;7.50;;
16612;SDS011;8419;52.358;9.752;2023-12-04T02:25:39;16.23;;;8.27;;
16612;SDS011;8419;52.358;9.752;2023-12-04T02:28:25;15.77;;;8.33;;
16612;SDS011;8419;52.358;9.752;2023-12-04T02:31:15;11.83;;;6.73;;
16612;SDS011;8419;52.358;9.752;2023-12-04T02:34:02;10.87;;;6.10;;
16612;SDS011;8419;52.358;9.752;2023-12-04T02:36:51;12.20;;;6.87;;
16612;SDS011;8419;52.358;9.752;2023-12-04T02:39:37;14.83;;;7.73;;
16612;SDS011;8419;52.358;9.752;2023-12-04T02:42:23;15.13;;;7.30;;
16612;SDS011;8419;52.358;9.752;2023-12-04T02:45:09;15.67;;;7.67;;
16612;SDS011;8419;52.358;9.752;2023-12-04T02:47:55;11.47;;;7.03;;
16612;SDS011;8419;52.358;9.752;2023-12-04T02:50:40;13.50;;;7.50;;
16612;SDS011;8419;52.358;9.752;2023-12-04T02:53:25;15.23;;;7.57;;
16612;SDS011;8419;52.358;9.752;2023-12-04T02:56:11;13.87;;;7.77;;
16612;SDS011;8419;52.358;9.752;2023-12-04T02:58:56;14.60;;;7.37;;
16612;SDS011;8419;52.358;9.752;2023-12-04T03:01:42;11.17;;;6.40;;
16612;SDS011;8419;52.358;9.752;2023-12-04T03:04:28;12.67;;;7.27;;
16612;SDS011;8419;52.358;9.752;2023-12-04T03:07:14;13.87;;;8.10;;
16612;SDS011;8419;52.358;9.752;2023-12-04T03:09:59;12.60;;;6.77;;
16612;SDS011;8419;52.358;9.752;2023-12-04T03:12:45;13.17;;;6.50;;
16612;SDS011;8419;52.358;9.752;2023-12-04T03:15:30;14.17;;;7.43;;
16612;SDS011;8419;52.358;9.752;2023-12-04T03:18:16;11.23;;;6.97;;
16612;SDS011;8419;52.358;9.752;2023-12-04T03:21:02;16.00;;;7.73;;
16612;SDS011;8419;52.358;9.752;2023-12-04T03:23:48;12.43;;;7.27;;
16612;SDS011;8419;52.358;9.752;2023-12-04T03:26:34;14.83;;;7.70;;
16612;SDS011;8419;52.358;9.752;2023-12-04T03:29:20;14.50;;;8.20;;
16612;SDS011;8419;52.358;9.752;2023-12-04T03:32:05;14.30;;;7.20;;
16612;SDS011;8419;52.358;9.752;2023-12-04T03:34:53;13.43;;;7.67;;
16612;SDS011;8419;52.358;9.752;2023-12-04T03:37:39;13.37;;;7.03;;
16612;SDS011;8419;52.358;9.752;2023-12-04T03:40:24;14.17;;;7.13;;
16612;SDS011;8419;52.358;9.752;2023-12-04T03:43:09;13.33;;;7.03;;
16612;SDS011;8419;52.358;9.752;2023-12-04T03:45:54;14.13;;;7.53;;
16612;SDS011;8419;52.358;9.752;2023-12-04T03:48:40;12.70;;;6.67;;
16612;SDS011;8419;52.358;9.752;2023-12-04T03:51:26;17.33;;;7.43;;
16612;SDS011;8419;52.358;9.752;2023-12-04T03:54:12;13.77;;;8.20;;
16612;SDS011;8419;52.358;9.752;2023-12-04T03:56:58;10.63;;;6.20;;
16612;SDS011;8419;52.358;9.752;2023-12-04T03:59:43;13.20;;;7.73;;
16612;SDS011;8419;52.358;9.752;2023-12-04T04:02:29;14.27;;;8.47;;
16612;SDS011;8419;52.358;9.752;2023-12-04T04:05:14;12.53;;;7.70;;
16612;SDS011;8419;52.358;9.752;2023-12-04T04:08:00;12.53;;;7.37;;
16612;SDS011;8419;52.358;9.752;2023-12-04T04:10:46;14.90;;;7.97;;
16612;SDS011;8419;52.358;9.752;2023-12-04T04:13:32;16.33;;;7.13;;
16612;SDS011;8419;52.358;9.752;2023-12-04T04:16:17;13.67;;;6.97;;
16612;SDS011;8419;52.358;9.752;2023-12-04T04:19:03;13.47;;;7.10;;
16612;SDS011;8419;52.358;9.752;2023-12-04T04:21:48;14.97;;;7.33;;
16612;SDS011;8419;52.358;9.752;2023-12-04T04:24:33;12.60;;;7.10;;
16612;SDS011;8419;52.358;9.752;2023-12-04T04:27:19;10.83;;;6.90;;
16612;SDS011;8419;52.358;9.752;2023-12-04T04:30:06;9.53;;;6.37;;
16612;SDS011;8419;52.358;9.752;2023-12-04T04:32:52;10.57;;;6.73;;
16612;SDS011;8419;52.358;9.752;2023-12-04T04:35:38;10.93;;;6.57;;
16612;SDS011;8419;52.358;9.752;2023-12-04T04:38:24;10.93;;;6.57;;
16612;SDS011;8419;52.358;9.752;2023-12-04T04:41:13;12.00;;;7.03;;
16612;SDS011;8419;52.358;9.752;2023-12-04T04:43:59;9.70;;;6.00;;
16612;SDS011;8419;52.358;9.752;2023-12-04T04:46:44;12.03;;;6.77;;
16612;SDS011;8419;52.358;9.752;2023-12-04T04:49:30;10.40;;;6.17;;
16612;SDS011;8419;52.358;9.752;2023-12-04T04:52:15;11.83;;;6.73;;
16612;SDS011;8419;52.358;9.752;2023-12-04T04:55:01;12.10;;;6.20;;
16612;SDS011;8419;52.358;9.752;2023-12-04T04:57:48;14.60;;;6.47;;
16612;SDS011;8419;52.358;9.752;2023-12-04T05:00:34;10.00;;;5.87;;
16612;SDS011;8419;52.358;9.752;2023-12-04T05:03:19;9.43;;;5.97;;
16612;SDS011;8419;52.358;9.752;2023-12-04T05:06:05;10.80;;;6.27;;
16612;SDS011;8419;52.358;9.752;2023-12-04T05:08:51;9.13;;;5.53;;
16612;SDS011;8419;52.358;9.752;2023-12-04T05:11:37;9.67;;;6.10;;
16612;SDS011;8419;52.358;9.752;2023-12-04T05:14:22;12.40;;;6.37;;
16612;SDS011;8419;52.358;9.752;2023-12-04T05:17:08;9.20;;;5.67;;
16612;SDS011;8419;52.358;9.752;2023-12-04T05:19:54;10.90;;;6.17;;
16612;SDS011;8419;52.358;9.752;2023-12-04T05:22:39;11.70;;;6.80;;
16612;SDS011;8419;52.358;9.752;2023-12-04T05:25:25;9.53;;;6.17;;
16612;SDS011;8419;52.358;9.752;2023-12-04T05:28:11;10.50;;;6.20;;
16612;SDS011;8419;52.358;9.752;2023-12-04T05:30:56;10.57;;;6.37;;
16612;SDS011;8419;52.358;9.752;2023-12-04T05:33:41;11.33;;;6.30;;
16612;SDS011;8419;52.358;9.752;2023-12-04T05:36:27;10.27;;;5.83;;
16612;SDS011;8419;52.358;9.752;2023-12-04T05:39:13;12.03;;;5.63;;
16612;SDS011;8419;52.358;9.752;2023-12-04T05:41:58;13.17;;;6.07;;
16612;SDS011;8419;52.358;9.752;2023-12-04T05:44:45;9.60;;;6.07;;
16612;SDS011;8419;52.358;9.752;2023-12-04T05:47:29;10.67;;;6.20;;
16612;SDS011;8419;52.358;9.752;2023-12-04T05:50:15;9.87;;;5.93;;
16612;SDS011;8419;52.358;9.752;2023-12-04T05:53:01;9.43;;;5.80;;
16612;SDS011;8419;52.358;9.752;2023-12-04T05:55:46;10.97;;;6.10;;
16612;SDS011;8419;52.358;9.752;2023-12-04T05:58:31;10.00;;;5.77;;
16612;SDS011;8419;52.358;9.752;2023-12-04T06:01:17;10.80;;;6.43;;
16612;SDS011;8419;52.358;9.752;2023-12-04T06:04:03;11.60;;;5.93;;
16612;SDS011;8419;52.358;9.752;2023-12-04T06:06:49;9.90;;;5.97;;
16612;SDS011;8419;52.358;9.752;2023-12-04T06:09:35;9.97;;;6.30;;
16612;SDS011;8419;52.358;9.752;2023-12-04T06:12:21;9.73;;;6.50;;
16612;SDS011;8419;52.358;9.752;2023-12-04T06:15:07;10.07;;;6.20;;
16612;SDS011;8419;52.358;9.752;2023-12-04T06:17:53;12.13;;;7.27;;
16612;SDS011;8419;52.358;9.752;2023-12-04T06:20:49;12.60;;;7.10;;
16612;SDS011;8419;52.358;9.752;2023-12-04T06:23:35;12.90;;;7.17;;
16612;SDS011;8419;52.358;9.752;2023-12-04T06:26:22;12.23;;;7.07;;
16612;SDS011;8419;52.358;9.752;2023-12-04T06:29:08;12.70;;;7.20;;
16612;SDS011;8419;52.358;9.752;2023-12-04T06:31:58;12.37;;;6.73;;
16612;SDS011;8419;52.358;9.752;2023-12-04T06:34:44;11.00;;;6.83;;
16612;SDS011;8419;52.358;9.752;2023-12-04T06:37:31;11.97;;;6.97;;
16612;SDS011;8419;52.358;9.752;2023-12-04T06:40:18;9.97;;;6.77;;
16612;SDS011;8419;52.358;9.752;2023-12-04T06:43:05;9.37;;;6.47;;
16612;SDS011;8419;52.358;9.752;2023-12-04T06:45:52;11.23;;;6.80;;
16612;SDS011;8419;52.358;9.752;2023-12-04T06:48:41;11.33;;;7.00;;
16612;SDS011;8419;52.358;9.752;2023-12-04T06:51:28;11.53;;;7.53;;
16612;SDS011;8419;52.358;9.752;2023-12-04T06:54:14;12.20;;;7.50;;
16612;SDS011;8419;52.358;9.752;2023-12-04T06:57:02;14.17;;;7.50;;
16612;SDS011;8419;52.358;9.752;2023-12-04T06:59:50;14.57;;;8.17;;
16612;SDS011;8419;52.358;9.752;2023-12-04T07:02:35;13.00;;;7.67;;
16612;SDS011;8419;52.358;9.752;2023-12-04T07:05:20;12.77;;;7.27;;
16612;SDS011;8419;52.358;9.752;2023-12-04T07:08:06;11.53;;;6.80;;
16612;SDS011;8419;52.358;9.752;2023-12-04T07:10:51;12.87;;;7.73;;
16612;SDS011;8419;52.358;9.752;2023-12-04T07:13:37;12.47;;;7.43;;
16612;SDS011;8419;52.358;9.752;2023-12-04T07:16:24;12.53;;;7.57;;
16612;SDS011;8419;52.358;9.752;2023-12-04T07:19:11;13.30;;;7.60;;
16612;SDS011;8419;52.358;9.752;2023-12-04T07:21:58;14.23;;;7.73;;
16612;SDS011;8419;52.358;9.752;2023-12-04T07:24:44;13.77;;;8.00;;
16612;SDS011;8419;52.358;9.752;2023-12-04T07:27:30;11.87;;;7.13;;
16612;SDS011;8419;52.358;9.752;2023-12-04T07:30:16;11.70;;;7.67;;
16612;SDS011;8419;52.358;9.752;2023-12-04T07:33:02;13.50;;;6.43;;
16612;SDS011;8419;52.358;9.752;2023-12-04T07:35:47;9.87;;;7.50;;
16612;SDS011;8419;52.358;9.752;2023-12-04T07:38:32;14.20;;;8.07;;
16612;SDS011;8419;52.358;9.752;2023-12-04T07:41:18;14.57;;;7.93;;
16612;SDS011;8419;52.358;9.752;2023-12-04T07:44:04;11.53;;;7.10;;
16612;SDS011;8419;52.358;9.752;2023-12-04T07:46:49;12.37;;;7.10;;
16612;SDS011;8419;52.358;9.752;2023-12-04T07:49:35;12.50;;;6.83;;
16612;SDS011;8419;52.358;9.752;2023-12-04T07:52:29;16.30;;;7.97;;
16612;SDS011;8419;52.358;9.752;2023-12-04T07:55:15;13.93;;;8.00;;
16612;SDS011;8419;52.358;9.752;2023-12-04T07:58:00;11.93;;;7.57;;
16612;SDS011;8419;52.358;9.752;2023-12-04T08:00:46;12.77;;;8.30;;
16612;SDS011;8419;52.358;9.752;2023-12-04T08:03:32;14.43;;;8.03;;
16612;SDS011;8419;52.358;9.752;2023-12-04T08:06:17;14.47;;;8.33;;
16612;SDS011;8419;52.358;9.752;2023-12-04T08:09:03;15.93;;;8.27;;
16612;SDS011;8419;52.358;9.752;2023-12-04T08:11:53;12.50;;;8.00;;
16612;SDS011;8419;52.358;9.752;2023-12-04T08:14:38;14.17;;;8.47;;
16612;SDS011;8419;52.358;9.752;2023-12-04T08:17:24;13.47;;;7.97;;
16612;SDS011;8419;52.358;9.752;2023-12-04T08:20:11;13.60;;;7.97;;
16612;SDS011;8419;52.358;9.752;2023-12-04T08:22:57;13.30;;;7.10;;
16612;SDS011;8419;52.358;9.752;2023-12-04T08:25:43;13.20;;;7.27;;
16612;SDS011;8419;52.358;9.752;2023-12-04T08:28:29;13.00;;;7.70;;
16612;SDS011;8419;52.358;9.752;2023-12-04T08:31:15;11.00;;;6.90;;
16612;SDS011;8419;52.358;9.752;2023-12-04T08:34:00;10.37;;;6.50;;
16612;SDS011;8419;52.358;9.752;2023-12-04T08:36:46;12.47;;;6.97;;
16612;SDS011;8419;52.358;9.752;2023-12-04T08:39:32;13.50;;;7.83;;
16612;SDS011;8419;52.358;9.752;2023-12-04T08:42:17;13.63;;;8.90;;
16612;SDS011;8419;52.358;9.752;2023-12-04T08:45:04;13.37;;;7.93;;
16612;SDS011;8419;52.358;9.752;2023-12-04T08:47:50;14.13;;;7.60;;
16612;SDS011;8419;52.358;9.752;2023-12-04T08:50:36;17.07;;;8.37;;
16612;SDS011;8419;52.358;9.752;2023-12-04T08:53:22;13.30;;;7.63;;
16612;SDS011;8419;52.358;9.752;2023-12-04T08:56:09;11.83;;;7.57;;
16612;SDS011;8419;52.358;9.752;2023-12-04T08:58:55;12.73;;;7.73;;
16612;SDS011;8419;52.358;9.752;2023-12-04T09:01:42;11.47;;;6.60;;
16612;SDS011;8419;52.358;9.752;2023-12-04T09:04:27;12.27;;;7.00;;
16612;SDS011;8419;52.358;9.752;2023-12-04T09:07:12;10.57;;;6.70;;
16612;SDS011;8419;52.358;9.752;2023-12-04T09:09:59;13.97;;;7.77;;
16612;SDS011;8419;52.358;9.752;2023-12-04T09:12:46;9.87;;;7.07;;
16612;SDS011;8419;52.358;9.752;2023-12-04T09:15:31;11.30;;;6.77;;
16612;SDS011;8419;52.358;9.752;2023-12-04T09:18:17;8.63;;;5.83;;
16612;SDS011;8419;52.358;9.752;2023-12-04T09:21:04;11.37;;;6.30;;
16612;SDS011;8419;52.358;9.752;2023-12-04T09:23:50;10.40;;;6.60;;
16612;SDS011;8419;52.358;9.752;2023-12-04T09:26:35;9.53;;;5.77;;
16612;SDS011;8419;52.358;9.752;2023-12-04T09:29:21;10.43;;;6.37;;
16612;SDS011;8419;52.358;9.752;2023-12-04T09:32:08;11.23;;;6.00;;
16612;SDS011;8419;52.358;9.752;2023-12-04T09:34:53;11.17;;;6.37;;
16612;SDS011;8419;52.358;9.752;2023-12-04T09:37:38;9.53;;;6.23;;
16612;SDS011;8419;52.358;9.752;2023-12-04T09:40:24;9.63;;;5.87;;
16612;SDS011;8419;52.358;9.752;2023-12-04T09:43:10;9.67;;;6.43;;
16612;SDS011;8419;52.358;9.752;2023-12-04T09:45:56;13.97;;;7.20;;
16612;SDS011;8419;52.358;9.752;2023-12-04T09:48:42;10.80;;;6.20;;
16612;SDS011;8419;52.358;9.752;2023-12-04T09:51:28;9.00;;;5.97;;
16612;SDS011;8419;52.358;9.752;2023-12-04T09:54:14;8.80;;;5.43;;
16612;SDS011;8419;52.358;9.752;2023-12-04T09:57:03;9.43;;;6.03;;
16612;SDS011;8419;52.358;9.752;2023-12-04T09:59:49;9.67;;;6.20;;
16612;SDS011;8419;52.358;9.752;2023-12-04T10:02:36;9.23;;;6.07;;
16612;SDS011;8419;52.358;9.752;2023-12-04T10:05:23;9.13;;;6.20;;
16612;SDS011;8419;52.358;9.752;2023-12-04T10:08:09;8.07;;;5.90;;
16612;SDS011;8419;52.358;9.752;2023-12-04T10:10:54;10.27;;;6.23;;
16612;SDS011;8419;52.358;9.752;2023-12-04T10:13:40;9.87;;;5.87;;
16612;SDS011;8419;52.358;9.752;2023-12-04T10:16:33;8.17;;;5.27;;
16612;SDS011;8419;52.358;9.752;2023-12-04T10:19:22;8.83;;;6.00;;
16612;SDS011;8419;52.358;9.752;2023-12-04T10:22:10;11.30;;;6.13;;
16612;SDS011;8419;52.358;9.752;2023-12-04T10:24:57;9.50;;;5.80;;
16612;SDS011;8419;52.358;9.752;2023-12-04T10:27:42;10.90;;;6.57;;
16612;SDS011;8419;52.358;9.752;2023-12-04T10:30:28;8.67;;;6.40;;
16612;SDS011;8419;52.358;9.752;2023-12-04T10:33:15;8.73;;;5.40;;
16612;SDS011;8419;52.358;9.752;2023-12-04T10:36:00;10.87;;;6.43;;
16612;SDS011;8419;52.358;9.752;2023-12-04T10:38:47;8.57;;;5.83;;
16612;SDS011;8419;52.358;9.752;2023-12-04T10:41:44;7.67;;;5.53;;
16612;SDS011;8419;52.358;9.752;2023-12-04T10:44:30;8.53;;;5.43;;
16612;SDS011;8419;52.358;9.752;2023-12-04T10:47:16;8.47;;;5.03;;
16612;SDS011;8419;52.358;9.752;2023-12-04T10:50:06;9.50;;;5.50;;
16612;SDS011;8419;52.358;9.752;2023-12-04T10:52:53;8.93;;;5.10;;
16612;SDS011;8419;52.358;9.752;2023-12-04T10:55:40;6.70;;;4.80;;
16612;SDS011;8419;52.358;9.752;2023-12-04T10:58:26;8.13;;;5.50;;
16612;SDS011;8419;52.358;9.752;2023-12-04T11:01:12;9.90;;;5.70;;
16612;SDS011;8419;52.358;9.752;2023-12-04T11:03:58;8.33;;;5.50;;
16612;SDS011;8419;52.358;9.752;2023-12-04T11:06:52;8.80;;;5.20;;
16612;SDS011;8419;52.358;9.752;2023-12-04T11:09:39;9.73;;;6.47;;
16612;SDS011;8419;52.358;9.752;2023-12-04T11:12:26;9.90;;;5.47;;
16612;SDS011;8419;52.358;9.752;2023-12-04T11:15:16;8.77;;;5.13;;
16612;SDS011;8419;52.358;9.752;2023-12-04T11:18:06;8.50;;;5.47;;
16612;SDS011;8419;52.358;9.752;2023-12-04T11:20:55;8.90;;;5.63;;
16612;SDS011;8419;52.358;9.752;2023-12-04T11:23:43;9.77;;;5.83;;
16612;SDS011;8419;52.358;9.752;2023-12-04T11:26:29;9.00;;;5.23;;
16612;SDS011;8419;52.358;9.752;2023-12-04T11:29:15;8.47;;;5.20;;
16612;SDS011;8419;52.358;9.752;2023-12-04T11:32:05;8.30;;;5.13;;
16612;SDS011;8419;52.358;9.752;2023-12-04T11:34:54;8.17;;;5.63;;
16612;SDS011;8419;52.358;9.752;2023-12-04T11:37:41;8.10;;;5.33;;
16612;SDS011;8419;52.358;9.752;2023-12-04T11:40:27;7.73;;;5.33;;
16612;SDS011;8419;52.358;9.752;2023-12-04T11:43:24;7.50;;;5.53;;
16612;SDS011;8419;52.358;9.752;2023-12-04T11:46:10;9.47;;;5.30;;
16612;SDS011;8419;52.358;9.752;2023-12-04T11:48:56;9.20;;;5.20;;
16612;SDS011;8419;52.358;9.752;2023-12-04T11:52:12;7.07;;;4.33;;
16612;SDS011;8419;52.358;9.752;2023-12-04T11:54:58;7.13;;;4.77;;
16612;SDS011;8419;52.358;9.752;2023-12-04T11:57:49;7.20;;;4.47;;
16612;SDS011;8419;52.358;9.752;2023-12-04T12:00:37;7.20;;;4.90;;
16612;SDS011;8419;52.358;9.752;2023-12-04T12:03:22;9.67;;;5.23;;
16612;SDS011;8419;52.358;9.752;2023-12-04T12:06:09;7.93;;;5.50;;
16612;SDS011;8419;52.358;9.752;2023-12-04T12:08:56;7.40;;;4.53;;
16612;SDS011;8419;52.358;9.752;2023-12-04T12:11:42;7.83;;;4.73;;
16612;SDS011;8419;52.358;9.752;2023-12-04T12:14:30;6.60;;;4.43;;
16612;SDS011;8419;52.358;9.752;2023-12-04T12:17:16;6.83;;;4.87;;
16612;SDS011;8419;52.358;9.752;2023-12-04T12:20:01;8.60;;;4.80;;
16612;SDS011;8419;52.358;9.752;2023-12-04T12:22:50;8.23;;;5.40;;
16612;SDS011;8419;52.358;9.752;2023-12-04T12:25:37;7.47;;;5.33;;
16612;SDS011;8419;52.358;9.752;2023-12-04T12:28:24;9.40;;;4.93;;
16612;SDS011;8419;52.358;9.752;2023-12-04T12:31:10;9.47;;;5.20;;
16612;SDS011;8419;52.358;9.752;2023-12-04T12:33:56;7.47;;;4.70;;
16612;SDS011;8419;52.358;9.752;2023-12-04T12:36:42;10.87;;;5.00;;
16612;SDS011;8419;52.358;9.752;2023-12-04T12:39:27;7.13;;;4.73;;
16612;SDS011;8419;52.358;9.752;2023-12-04T12:42:20;7.13;;;4.90;;
16612;SDS011;8419;52.358;9.752;2023-12-04T12:45:08;7.53;;;4.80;;
16612;SDS011;8419;52.358;9.752;2023-12-04T12:48:00;6.80;;;4.43;;
16612;SDS011;8419;52.358;9.752;2023-12-04T12:50:45;9.37;;;5.10;;
16612;SDS011;8419;52.358;9.752;2023-12-04T12:53:32;9.50;;;4.83;;
16612;SDS011;8419;52.358;9.752;2023-12-04T12:56:18;9.97;;;4.90;;
16612;SDS011;8419;52.358;9.752;2023-12-04T12:59:04;8.83;;;4.63;;
16612;SDS011;8419;52.358;9.752;2023-12-04T13:01:51;7.47;;;4.40;;
16612;SDS011;8419;52.358;9.752;2023-12-04T13:04:39;7.53;;;4.83;;
16612;SDS011;8419;52.358;9.752;2023-12-04T13:07:26;6.03;;;4.03;;
16612;SDS011;8419;52.358;9.752;2023-12-04T13:10:11;6.43;;;4.50;;
16612;SDS011;8419;52.358;9.752;2023-12-04T13:12:58;7.30;;;4.57;;
16612;SDS011;8419;52.358;9.752;2023-12-04T13:15:44;5.07;;;4.03;;
16612;SDS011;8419;52.358;9.752;2023-12-04T13:18:29;6.07;;;3.97;;
16612;SDS011;8419;52.358;9.752;2023-12-04T13:21:18;6.30;;;4.03;;
16612;SDS011;8419;52.358;9.752;2023-12-04T13:24:05;6.23;;;4.50;;
16612;SDS011;8419;52.358;9.752;2023-12-04T13:26:54;8.03;;;4.30;;
16612;SDS011;8419;52.358;9.752;2023-12-04T13:29:40;10.33;;;4.57;;
16612;SDS011;8419;52.358;9.752;2023-12-04T13:32:28;6.93;;;4.50;;
16612;SDS011;8419;52.358;9.752;2023-12-04T13:35:14;7.30;;;4.63;;
16612;SDS011;8419;52.358;9.752;2023-12-04T13:37:59;5.57;;;3.80;;
16612;SDS011;8419;52.358;9.752;2023-12-04T13:40:45;6.70;;;4.37;;
16612;SDS011;8419;52.358;9.752;2023-12-04T13:43:43;7.23;;;3.60;;
16612;SDS011;8419;52.358;9.752;2023-12-04T13:46:34;5.67;;;4.10;;
16612;SDS011;8419;52.358;9.752;2023-12-04T13:49:21;6.67;;;4.03;;
16612;SDS011;8419;52.358;9.752;2023-12-04T13:52:07;6.63;;;3.90;;
16612;SDS011;8419;52.358;9.752;2023-12-04T13:54:52;6.80;;;4.10;;
16612;SDS011;8419;52.358;9.752;2023-12-04T13:57:39;5.73;;;4.07;;
16612;SDS011;8419;52.358;9.752;2023-12-04T14:00:39;6.33;;;3.73;;
16612;SDS011;8419;52.358;9.752;2023-12-04T14:03:28;7.43;;;4.37;;
16612;SDS011;8419;52.358;9.752;2023-12-04T14:06:13;9.23;;;4.60;;
16612;SDS011;8419;52.358;9.752;2023-12-04T14:09:00;5.23;;;3.47;;
16612;SDS011;8419;52.358;9.752;2023-12-04T14:11:50;6.40;;;4.17;;
16612;SDS011;8419;52.358;9.752;2023-12-04T14:14:35;6.00;;;3.87;;
16612;SDS011;8419;52.358;9.752;2023-12-04T14:17:22;5.87;;;4.20;;
16612;SDS011;8419;52.358;9.752;2023-12-04T14:20:09;6.53;;;4.07;;
16612;SDS011;8419;52.358;9.752;2023-12-04T14:22:59;6.37;;;3.60;;
16612;SDS011;8419;52.358;9.752;2023-12-04T14:25:45;5.00;;;3.07;;
16612;SDS011;8419;52.358;9.752;2023-12-04T14:28:31;4.47;;;3.43;;
16612;SDS011;8419;52.358;9.752;2023-12-04T14:31:17;5.30;;;4.03;;
16612;SDS011;8419;52.358;9.752;2023-12-04T14:34:03;5.63;;;3.83;;
16612;SDS011;8419;52.358;9.752;2023-12-04T14:36:48;6.43;;;4.20;;
16612;SDS011;8419;52.358;9.752;2023-12-04T14:39:35;10.52;;;4.00;;
16612;SDS011;8419;52.358;9.752;2023-12-04T14:42:21;7.27;;;3.77;;
16612;SDS011;8419;52.358;9.752;2023-12-04T14:45:07;5.67;;;3.90;;
16612;SDS011;8419;52.358;9.752;2023-12-04T14:47:53;5.30;;;3.50;;
16612;SDS011;8419;52.358;9.752;2023-12-04T14:50:41;9.07;;;3.33;;
16612;SDS011;8419;52.358;9.752;2023-12-04T14:53:26;8.83;;;4.00;;
16612;SDS011;8419;52.358;9.752;2023-12-04T14:56:15;7.67;;;4.73;;
16612;SDS011;8419;52.358;9.752;2023-12-04T14:59:09;5.57;;;3.30;;
16612;SDS011;8419;52.358;9.752;2023-12-04T15:02:35;4.17;;;3.17;;
16612;SDS011;8419;52.358;9.752;2023-12-04T15:05:58;7.03;;;4.00;;
16612;SDS011;8419;52.358;9.752;2023-12-04T15:09:22;6.40;;;3.90;;
16612;SDS011;8419;52.358;9.752;2023-12-04T15:12:26;6.67;;;3.63;;
16612;SDS011;8419;52.358;9.752;2023-12-04T15:15:21;9.50;;;3.67;;
16612;SDS011;8419;52.358;9.752;2023-12-04T15:18:23;14.63;;;4.30;;
16612;SDS011;8419;52.358;9.752;2023-12-04T15:21:18;7.37;;;3.53;;
16612;SDS011;8419;52.358;9.752;2023-12-04T15:24:06;13.03;;;4.67;;
16612;SDS011;8419;52.358;9.752;2023-12-04T15:26:52;9.87;;;3.53;;
16612;SDS011;8419;52.358;9.752;2023-12-04T15:29:37;8.40;;;3.57;;
16612;SDS011;8419;52.358;9.752;2023-12-04T15:32:22;8.97;;;3.53;;
16612;SDS011;8419;52.358;9.752;2023-12-04T15:35:08;6.93;;;4.00;;
16612;SDS011;8419;52.358;9.752;2023-12-04T15:37:53;10.13;;;4.20;;
16612;SDS011;8419;52.358;9.752;2023-12-04T15:40:39;7.17;;;4.37;;
16612;SDS011;8419;52.358;9.752;2023-12-04T15:43:24;5.97;;;4.03;;
16612;SDS011;8419;52.358;9.752;2023-12-04T15:46:10;6.50;;;3.70;;
16612;SDS011;8419;52.358;9.752;2023-12-04T15:48:55;10.70;;;4.10;;
16612;SDS011;8419;52.358;9.752;2023-12-04T15:51:41;11.43;;;3.60;;
16612;SDS011;8419;52.358;9.752;2023-12-04T15:54:26;7.93;;;4.17;;
16612;SDS011;8419;52.358;9.752;2023-12-04T15:57:11;6.13;;;4.70;;
16612;SDS011;8419;52.358;9.752;2023-12-04T16:00:00;7.07;;;4.17;;
16612;SDS011;8419;52.358;9.752;2023-12-04T16:02:45;7.07;;;4.13;;
16612;SDS011;8419;52.358;9.752;2023-12-04T16:05:31;7.43;;;4.30;;
16612;SDS011;8419;52.358;9.752;2023-12-04T16:08:17;8.00;;;4.23;;
16612;SDS011;8419;52.358;9.752;2023-12-04T16:11:02;7.00;;;4.57;;
16612;SDS011;8419;52.358;9.752;2023-12-04T16:13:49;6.87;;;4.57;;
16612;SDS011;8419;52.358;9.752;2023-12-04T16:16:34;6.57;;;5.10;;
16612;SDS011;8419;52.358;9.752;2023-12-04T16:19:21;8.57;;;5.10;;
16612;SDS011;8419;52.358;9.752;2023-12-04T16:22:07;10.00;;;4.97;;
16612;SDS011;8419;52.358;9.752;2023-12-04T16:24:52;11.23;;;5.40;;
16612;SDS011;8419;52.358;9.752;2023-12-04T16:27:38;9.40;;;5.30;;
16612;SDS011;8419;52.358;9.752;2023-12-04T16:30:24;6.97;;;4.70;;
16612;SDS011;8419;52.358;9.752;2023-12-04T16:33:09;10.37;;;5.90;;
16612;SDS011;8419;52.358;9.752;2023-12-04T16:35:55;8.33;;;5.60;;
16612;SDS011;8419;52.358;9.752;2023-12-04T16:38:41;7.50;;;5.03;;
16612;SDS011;8419;52.358;9.752;2023-12-04T16:41:27;8.60;;;6.07;;
16612;SDS011;8419;52.358;9.752;2023-12-04T16:44:12;7.57;;;5.20;;
16612;SDS011;8419;52.358;9.752;2023-12-04T16:47:01;7.90;;;5.23;;
16612;SDS011;8419;52.358;9.752;2023-12-04T16:49:47;10.23;;;5.47;;
16612;SDS011;8419;52.358;9.752;2023-12-04T16:52:32;6.87;;;5.07;;